Date,TemperatureHighF,TemperatureAvgF,TemperatureLowF,DewpointHighF,DewpointAvgF,DewpointLowF,HumidityHigh,HumidityAvg,HumidityLow,PressureMaxIn,PressureMinIn,WindSpeedMaxMPH,WindSpeedAvgMPH,GustSpeedMaxMPH,PrecipitationSumIn
2013-9-1,84.2,77.2,73.4,75.2,72.6,71.6,94,86,70,30.20,30.12,7,1,0,0.00
2013-9-2,82.4,75.5,71.6,75.2,72.1,69.8,100,89,66,30.16,30.05,5,0,0,0.00
2013-9-3,82.4,72.2,62.6,69.8,62.5,55.4,100,75,45,30.25,30.07,10,2,0,0.00
2013-9-4,82.4,70.1,57.2,60.8,56.7,50.0,100,67,35,30.34,30.24,9,1,0,0.00
2013-9-5,77.0,66.6,55.4,60.8,52.8,37.4,94,66,29,30.53,30.28,10,2,0,0.00
2013-9-6,71.6,59.8,50.0,51.8,44.3,39.2,94,60,33,30.61,30.50,8,3,0,0.00
2013-9-7,80.6,64.3,46.4,59.0,48.9,42.8,100,64,26,30.50,30.25,10,1,0,0.00
2013-9-8,80.6,69.6,59.0,64.4,54.6,41.0,88,61,31,30.45,30.16,13,3,0,0.00
2013-9-9,73.4,62.6,50.0,57.2,49.5,44.6,88,65,38,30.60,30.45,8,2,0,0.00
2013-9-10,86.0,74.5,64.4,73.4,67.7,57.2,94,80,58,30.51,30.37,9,2,0,0.00
2013-9-11,96.8,82.7,71.6,75.2,72.4,68.0,100,73,47,30.46,30.29,10,2,0,0.00
2013-9-12,87.8,74.8,68.0,75.2,70.1,66.2,100,86,62,30.33,30.03,9,2,0,0.00
2013-9-13,77.0,67.7,57.2,68.0,58.7,46.4,100,75,47,30.22,29.99,13,3,0,0.00
2013-9-14,66.2,57.9,51.8,48.2,46.0,42.8,82,66,49,30.50,30.22,12,4,0,0.00
2013-9-15,71.6,56.1,42.8,53.6,46.3,37.4,100,74,29,30.56,30.43,6,1,0,0.00
2013-9-16,73.4,62.1,55.4,57.2,52.6,46.4,94,74,44,30.61,30.39,12,2,0,0.00
2013-9-17,64.4,54.8,46.4,46.4,40.0,35.6,93,60,34,30.78,30.61,12,4,0,0.00
2013-9-18,57.2,47.0,44.6,50.0,46.1,42.8,100,97,77,30.72,30.68,5,1,0,0.00
2013-9-19,78.8,60.7,46.4,55.4,48.7,42.8,100,72,30,30.56,30.40,8,1,0,0.00
2013-9-20,80.6,63.6,50.0,60.8,53.8,48.2,100,75,32,30.45,30.32,8,2,0,0.00
2013-9-21,78.8,65.0,53.6,68.0,59.5,51.8,100,84,47,30.37,30.01,10,2,0,0.00
2013-9-22,68.0,61.8,53.6,62.6,50.7,39.2,100,70,45,30.28,30.01,12,3,0,0.00
2013-9-23,64.4,56.0,46.4,46.4,41.8,37.4,87,60,42,30.42,30.28,14,3,0,0.00
2013-9-24,73.4,56.9,41.0,48.2,42.4,39.2,100,63,31,30.42,30.22,12,2,0,0.00
2013-9-25,73.4,59.5,46.4,55.4,47.3,41.0,94,68,33,30.33,30.22,9,2,0,0.00
2013-9-26,69.8,60.2,51.8,57.2,53.4,50.0,94,80,53,30.47,30.31,8,2,0,0.00
2013-9-27,68.0,59.8,51.8,55.4,51.5,50.0,94,76,56,30.62,30.47,9,3,0,0.00
2013-9-28,75.2,62.2,53.6,55.4,51.8,46.4,94,72,38,30.68,30.59,8,2,0,0.00
2013-9-29,73.4,60.4,50.0,55.4,52.5,48.2,100,78,46,30.61,30.42,7,1,0,0.00
2013-9-30,77.0,60.5,50.0,55.4,51.4,48.2,100,77,39,30.46,30.31,6,1,0,0.00